createdAt,value
2022-12-04T00:01:36.634Z,101050.64
2022-12-04T00:06:40.358Z,101045.05
2022-12-04T00:11:43.665Z,101043.36
2022-12-04T00:16:47.109Z,101048.71
2022-12-04T00:21:51.620Z,101053.20
2022-12-04T00:26:55.340Z,101054.23
2022-12-04T00:31:58.745Z,101052.60
2022-12-04T00:37:02.271Z,101050.90
2022-12-04T00:42:05.785Z,101042.13
2022-12-04T00:47:09.095Z,101035.45
2022-12-04T00:52:12.507Z,101033.98
2022-12-04T00:57:15.921Z,101025.28
2022-12-04T01:02:19.435Z,101023.03
2022-12-04T01:07:22.755Z,101019.55
2022-12-04T01:12:26.262Z,101022.11
2022-12-04T01:17:29.880Z,101014.89
2022-12-04T01:22:33.397Z,101007.68
2022-12-04T01:27:36.707Z,101010.63
2022-12-04T01:32:40.228Z,101008.53
2022-12-04T01:37:43.737Z,101015.05
2022-12-04T01:42:52.681Z,101022.67
2022-12-04T01:48:19.747Z,101011.13
2022-12-04T01:53:23.288Z,100992.64
2022-12-04T01:58:32.515Z,100993.17
2022-12-04T02:03:36.343Z,100990.92
2022-12-04T02:08:39.956Z,100987.35
2022-12-04T02:14:04.769Z,100992.70
2022-12-04T02:19:10.742Z,100992.55
2022-12-04T02:24:50.134Z,100990.92
2022-12-04T02:30:04.468Z,100985.66
2022-12-04T02:35:10.956Z,100991.86
2022-12-04T02:40:21.841Z,100984.02
2022-12-04T02:45:31.679Z,100978.98
2022-12-04T02:50:39.709Z,100980.08
2022-12-04T02:55:48.771Z,100986.36
2022-12-04T03:00:54.735Z,100983.80
2022-12-04T03:06:07.389Z,100986.13
2022-12-04T03:11:11.297Z,100985.20
2022-12-04T03:16:23.691Z,100978.61
2022-12-04T03:21:33.590Z,100970.14
2022-12-04T03:26:45.911Z,100965.55
2022-12-04T03:32:06.730Z,100961.13
2022-12-04T03:37:20.589Z,100974.16
2022-12-04T03:42:28.413Z,100998.38
2022-12-04T03:47:43.493Z,101006.90
2022-12-04T03:53:03.905Z,100992.55
2022-12-04T03:58:14.075Z,100975.65
2022-12-04T04:03:23.221Z,100976.02
2022-12-04T04:08:34.260Z,100979.43
2022-12-04T04:14:03.842Z,100977.73
2022-12-04T04:19:31.232Z,100977.27
2022-12-04T04:24:45.691Z,100970.45
2022-12-04T04:29:52.633Z,100966.48
2022-12-04T04:35:05.420Z,100960.44
2022-12-04T04:40:22.143Z,100958.48
2022-12-04T04:45:42.862Z,100956.52
2022-12-04T04:50:46.786Z,100957.39
2022-12-04T04:55:50.456Z,100945.67
2022-12-04T05:00:59.556Z,100942.79
2022-12-04T05:06:03.078Z,100952.88
2022-12-04T05:11:06.890Z,100948.38
2022-12-04T05:16:15.404Z,100947.29
2022-12-04T05:21:18.734Z,100940.70
2022-12-04T05:26:22.048Z,100951.78
2022-12-04T05:31:25.594Z,100952.17
2022-12-04T05:36:29.078Z,100950.23
2022-12-04T05:41:32.488Z,100952.41
2022-12-04T05:46:35.954Z,100948.30
2022-12-04T05:51:39.521Z,100945.98
2022-12-04T05:56:43.138Z,100945.51
2022-12-04T06:01:46.539Z,100952.26
2022-12-04T06:06:49.965Z,100961.34
2022-12-04T06:11:57.997Z,100976.54
2022-12-04T06:17:01.500Z,100978.73
2022-12-04T06:22:04.916Z,100987.41
2022-12-04T06:32:31.812Z,100981.07
2022-12-04T06:37:35.224Z,100980.05
2022-12-04T06:42:38.535Z,100979.91
2022-12-04T06:47:41.952Z,100991.47
2022-12-04T06:52:45.400Z,100991.94
2022-12-04T06:57:48.881Z,100999.32
2022-12-04T07:02:52.371Z,101005.54
2022-12-04T07:07:55.880Z,101010.98
2022-12-04T07:12:59.425Z,101023.38
2022-12-04T07:18:03.043Z,101021.60
2022-12-04T07:23:07.489Z,101013.23
2022-12-04T07:28:10.999Z,101014.00
2022-12-04T07:33:14.516Z,101011.67
2022-12-04T07:38:17.935Z,101012.46
2022-12-04T07:43:21.335Z,101015.25
2022-12-04T07:48:30.185Z,101008.81
2022-12-04T07:53:36.558Z,101012.70
2022-12-04T07:58:40.485Z,101008.89
2022-12-04T08:03:48.405Z,101019.15
2022-12-04T08:08:53.467Z,101023.50
2022-12-04T08:14:09.023Z,101013.02
2022-12-04T08:19:12.599Z,101015.90
2022-12-04T08:24:17.621Z,101013.33
2022-12-04T08:29:20.931Z,101012.16
2022-12-04T08:34:25.371Z,101010.14
2022-12-04T08:39:28.580Z,101003.08
2022-12-04T08:44:32.092Z,101011.92
2022-12-04T08:49:35.916Z,101026.77
2022-12-04T08:54:39.638Z,101030.18
2022-12-04T08:59:43.560Z,101030.41
2022-12-04T09:04:47.359Z,101025.83
2022-12-04T09:09:52.221Z,101030.71
2022-12-04T09:14:57.106Z,101016.49
2022-12-04T09:20:02.916Z,101015.56
2022-12-04T09:25:08.559Z,101007.63
2022-12-04T09:30:14.451Z,101008.08
2022-12-04T09:35:21.068Z,101002.95
2022-12-04T09:40:58.111Z,100995.10
2022-12-04T09:46:13.258Z,100995.25
2022-12-04T09:51:33.631Z,100998.67
2022-12-04T09:56:39.248Z,100995.33
2022-12-04T10:01:50.996Z,100993.14
2022-12-04T10:07:39.548Z,100983.70
2022-12-04T10:12:55.676Z,100981.08
2022-12-04T10:18:31.605Z,100967.70
2022-12-04T10:23:58.703Z,100953.25
2022-12-04T10:29:10.614Z,100942.55
2022-12-04T10:34:27.191Z,100936.70
2022-12-04T10:39:42.093Z,100934.37
2022-12-04T10:44:45.916Z,100934.70
2022-12-04T10:49:52.296Z,100931.98
2022-12-04T10:55:02.783Z,100926.73
2022-12-04T11:00:30.016Z,100921.13
2022-12-04T11:05:37.760Z,100922.05
2022-12-04T11:10:44.864Z,100921.53
2022-12-04T11:15:55.137Z,100917.02
2022-12-04T11:21:01.519Z,100923.45
2022-12-04T11:26:06.420Z,100923.31
2022-12-04T11:31:16.727Z,100927.20
2022-12-04T11:36:24.769Z,100919.44
2022-12-04T11:41:31.479Z,100921.36
2022-12-04T11:46:37.080Z,100921.36
2022-12-04T11:52:02.042Z,100917.73
2022-12-04T11:57:39.135Z,100921.29
2022-12-04T12:03:13.911Z,100917.08
2022-12-04T12:08:20.060Z,100918.79
2022-12-04T12:13:49.486Z,100918.64
2022-12-04T12:19:05.188Z,100920.73
2022-12-04T12:24:11.466Z,100919.73
2022-12-04T12:29:21.023Z,100919.34
2022-12-04T12:34:37.342Z,100916.29
2022-12-04T12:39:48.124Z,100905.64
2022-12-04T12:45:01.983Z,100908.45
2022-12-04T12:50:16.665Z,100908.06
2022-12-04T12:55:33.795Z,100909.39
2022-12-04T13:00:47.207Z,100906.20
2022-12-04T13:05:55.066Z,100912.11
2022-12-04T13:10:58.368Z,100911.17
2022-12-04T13:16:14.016Z,100912.80
2022-12-04T13:21:45.749Z,100913.04
2022-12-04T13:27:12.814Z,100909.39
2022-12-04T13:32:45.002Z,100911.41
2022-12-04T13:38:11.873Z,100915.68
2022-12-04T13:43:34.238Z,100915.21
2022-12-04T13:48:41.220Z,100914.13
2022-12-04T13:53:44.838Z,100916.25
2022-12-04T13:59:04.127Z,100911.77
2022-12-04T14:04:08.560Z,100911.48
2022-12-04T14:09:32.046Z,100915.45
2022-12-04T14:14:43.140Z,100912.74
2022-12-04T14:19:53.439Z,100916.16
2022-12-04T14:25:21.709Z,100919.05
2022-12-04T14:30:38.620Z,100920.52
2022-12-04T14:36:05.502Z,100919.51
2022-12-04T14:41:08.915Z,100919.35
2022-12-04T14:46:25.642Z,100915.95
2022-12-04T14:51:43.694Z,100913.84
2022-12-04T14:57:05.647Z,100913.23
2022-12-04T15:02:13.460Z,100910.59
2022-12-04T15:07:22.229Z,100910.35
2022-12-04T15:12:35.662Z,100911.52
2022-12-04T15:17:39.058Z,100909.03
2022-12-04T15:22:43.062Z,100910.91
2022-12-04T15:27:49.263Z,100911.45
2022-12-04T15:32:53.906Z,100910.77
2022-12-04T15:37:59.516Z,100907.41
2022-12-04T15:43:17.328Z,100907.88
2022-12-04T15:48:28.233Z,100907.27
2022-12-04T15:53:40.362Z,100911.08
2022-12-04T15:58:53.059Z,100918.45
2022-12-04T16:03:56.734Z,100922.73
2022-12-04T16:09:13.405Z,100921.17
2022-12-04T16:14:18.720Z,100922.41
2022-12-04T16:19:30.370Z,100920.77
2022-12-04T16:24:33.883Z,100922.73
2022-12-04T16:29:37.192Z,100916.13
2022-12-04T16:34:40.912Z,100906.96
2022-12-04T16:39:44.732Z,100898.19
2022-12-04T16:44:48.458Z,100893.30
2022-12-04T16:49:52.384Z,100895.88
2022-12-04T16:54:58.432Z,100886.79
2022-12-04T17:00:04.435Z,100886.95
2022-12-04T17:05:09.029Z,100899.67
2022-12-04T17:10:15.006Z,100896.42
2022-12-04T17:15:21.260Z,100890.37
2022-12-04T17:20:24.841Z,100893.39
2022-12-04T17:25:28.150Z,100892.61
2022-12-04T17:30:35.997Z,100894.47
2022-12-04T17:35:44.398Z,100898.35
2022-12-04T17:40:58.937Z,100905.89
2022-12-04T17:46:02.797Z,100907.05
2022-12-04T17:51:17.679Z,100908.84
2022-12-04T17:56:23.550Z,100908.52
2022-12-04T18:01:29.249Z,100913.32
2022-12-04T18:06:35.267Z,100916.96
2022-12-04T18:11:40.749Z,100921.02
2022-12-04T18:16:47.355Z,100916.59
2022-12-04T18:21:51.880Z,100909.77
2022-12-04T18:26:55.394Z,100915.28
2022-12-04T18:31:58.833Z,100920.95
2022-12-04T18:37:02.353Z,100928.08
2022-12-04T18:42:06.145Z,100935.13
2022-12-04T18:47:09.457Z,100926.51
2022-12-04T18:52:12.869Z,100926.04
2022-12-04T18:57:16.281Z,100922.71
2022-12-04T19:02:19.764Z,100919.14
2022-12-04T19:07:23.420Z,100930.63
2022-12-04T19:12:26.938Z,100935.36
2022-12-04T19:17:30.348Z,100937.21
2022-12-04T19:22:33.656Z,100941.33
2022-12-04T19:27:37.171Z,100941.87
2022-12-04T19:32:40.588Z,100945.22
2022-12-04T19:37:48.164Z,100946.23
2022-12-04T19:42:58.204Z,100950.96
2022-12-04T19:48:06.292Z,100955.84
2022-12-04T19:53:11.951Z,100957.94
2022-12-04T19:58:15.264Z,100955.14
2022-12-04T20:03:18.685Z,100955.46
2022-12-04T20:08:22.298Z,100957.96
2022-12-04T20:13:25.809Z,100963.70
2022-12-04T20:18:29.528Z,100968.27
2022-12-04T20:23:32.840Z,100974.24
2022-12-04T21:25:42.172Z,100974.73
2022-12-04T21:30:45.461Z,100973.65
2022-12-04T21:35:48.893Z,100968.59
2022-12-04T21:40:52.305Z,100969.13
2022-12-04T21:46:04.487Z,100967.33
2022-12-04T21:51:26.883Z,100957.77
2022-12-04T21:56:35.826Z,100956.23
2022-12-04T22:01:39.508Z,100955.07
2022-12-04T22:06:43.474Z,100940.48
2022-12-04T22:11:46.988Z,100931.16
2022-12-04T22:16:51.930Z,100933.94
2022-12-04T22:21:55.452Z,100930.06
2022-12-04T22:26:58.865Z,100929.13
2022-12-04T22:32:02.278Z,100932.30
2022-12-04T22:37:05.692Z,100934.86
2022-12-04T22:42:09.107Z,100937.82
2022-12-04T22:47:12.570Z,100929.66
2022-12-04T22:52:16.135Z,100932.29
2022-12-04T22:57:19.445Z,100920.82
2022-12-04T23:02:22.861Z,100918.25
2022-12-04T23:07:26.272Z,100916.70
2022-12-04T23:12:30.094Z,100916.48
2022-12-04T23:17:33.510Z,100906.02
2022-12-04T23:22:37.026Z,100912.70
2022-12-04T23:27:40.439Z,100921.00
2022-12-04T23:32:43.850Z,100917.98
2022-12-04T23:37:47.263Z,100918.05
2022-12-04T23:42:50.586Z,100911.61
2022-12-04T23:47:56.036Z,100916.42
2022-12-04T23:52:59.348Z,100911.38
2022-12-04T23:58:02.963Z,100896.80
